sensor_id;sensor_type;location;lat;lon;timestamp;pressure;altitude;pressure_sealevel;temperature;humidity
46291;BME280;32023;44.444;26.006;2023-01-28T00:00:10;100070.94;;;0.80;nan
46291;BME280;32023;44.444;26.006;2023-01-28T00:02:37;100077.22;;;0.87;nan
46291;BME280;32023;44.444;26.006;2023-01-28T00:05:03;100066.19;;;0.82;nan
46291;BME280;32023;44.444;26.006;2023-01-28T00:07:30;100075.53;;;0.80;nan
46291;BME280;32023;44.444;26.006;2023-01-28T00:09:56;100065.94;;;0.84;nan
46291;BME280;32023;44.444;26.006;2023-01-28T00:12:22;100063.06;;;0.85;nan
46291;BME280;32023;44.444;26.006;2023-01-28T00:14:50;100074.31;;;0.82;nan
46291;BME280;32023;44.444;26.006;2023-01-28T00:17:16;100066.78;;;0.84;nan
46291;BME280;32023;44.444;26.006;2023-01-28T00:19:43;100078.03;;;0.81;nan
46291;BME280;32023;44.444;26.006;2023-01-28T00:22:09;100075.94;;;0.83;nan
46291;BME280;32023;44.444;26.006;2023-01-28T00:24:36;100075.53;;;0.80;nan
46291;BME280;32023;44.444;26.006;2023-01-28T00:27:02;100079.91;;;0.81;nan
46291;BME280;32023;44.444;26.006;2023-01-28T00:29:29;100075.09;;;0.76;nan
46291;BME280;32023;44.444;26.006;2023-01-28T00:31:55;100074.25;;;0.76;nan
46291;BME280;32023;44.444;26.006;2023-01-28T00:34:21;100074.91;;;0.78;nan
46291;BME280;32023;44.444;26.006;2023-01-28T00:36:48;100088.88;;;0.81;nan
46291;BME280;32023;44.444;26.006;2023-01-28T00:39:23;100079.06;;;0.80;nan
46291;BME280;32023;44.444;26.006;2023-01-28T00:41:53;100077.22;;;0.81;nan
46291;BME280;32023;44.444;26.006;2023-01-28T00:44:20;100085.97;;;0.83;nan
46291;BME280;32023;44.444;26.006;2023-01-28T00:46:48;100079.72;;;0.82;nan
46291;BME280;32023;44.444;26.006;2023-01-28T00:49:14;100075.16;;;0.83;nan
46291;BME280;32023;44.444;26.006;2023-01-28T00:51:41;100070.53;;;0.83;nan
46291;BME280;32023;44.444;26.006;2023-01-28T00:54:08;100083.88;;;0.78;nan
46291;BME280;32023;44.444;26.006;2023-01-28T00:56:35;100078.25;;;0.80;nan
46291;BME280;32023;44.444;26.006;2023-01-28T00:59:02;100086.78;;;0.77;nan
46291;BME280;32023;44.444;26.006;2023-01-28T01:01:28;100080.09;;;0.79;nan
46291;BME280;32023;44.444;26.006;2023-01-28T01:03:55;100078.03;;;0.81;nan
46291;BME280;32023;44.444;26.006;2023-01-28T01:06:37;100075.75;;;0.78;nan
46291;BME280;32023;44.444;26.006;2023-01-28T01:09:06;100082.19;;;0.77;nan
46291;BME280;32023;44.444;26.006;2023-01-28T01:11:33;100075.50;;;0.73;nan
46291;BME280;32023;44.444;26.006;2023-01-28T01:14:00;100072.81;;;0.73;nan
46291;BME280;32023;44.444;26.006;2023-01-28T01:16:30;100086.75;;;0.70;nan
46291;BME280;32023;44.444;26.006;2023-01-28T01:18:58;100075.94;;;0.70;nan
46291;BME280;32023;44.444;26.006;2023-01-28T01:21:29;100075.28;;;0.68;nan
46291;BME280;32023;44.444;26.006;2023-01-28T01:23:56;100079.47;;;0.64;nan
46291;BME280;32023;44.444;26.006;2023-01-28T01:26:23;100075.50;;;0.67;nan
46291;BME280;32023;44.444;26.006;2023-01-28T01:28:52;100078.41;;;0.65;nan
46291;BME280;32023;44.444;26.006;2023-01-28T01:31:20;100074.66;;;0.66;nan
46291;BME280;32023;44.444;26.006;2023-01-28T01:33:48;100074.47;;;0.68;nan
46291;BME280;32023;44.444;26.006;2023-01-28T01:36:15;100072.19;;;0.71;nan
46291;BME280;32023;44.444;26.006;2023-01-28T01:38:45;100074.47;;;0.74;nan
46291;BME280;32023;44.444;26.006;2023-01-28T01:41:29;100078.47;;;0.78;nan
46291;BME280;32023;44.444;26.006;2023-01-28T01:48:54;100087.22;;;0.87;nan
46291;BME280;32023;44.444;26.006;2023-01-28T01:51:27;100085.78;;;0.91;nan
46291;BME280;32023;44.444;26.006;2023-01-28T01:53:57;100094.13;;;0.89;nan
46291;BME280;32023;44.444;26.006;2023-01-28T01:56:31;100087.25;;;0.93;nan
46291;BME280;32023;44.444;26.006;2023-01-28T01:59:01;100092.06;;;0.98;nan
46291;BME280;32023;44.444;26.006;2023-01-28T02:01:29;100098.13;;;1.00;nan
46291;BME280;32023;44.444;26.006;2023-01-28T02:04:13;100089.56;;;0.96;nan
46291;BME280;32023;44.444;26.006;2023-01-28T02:06:42;100092.28;;;0.96;nan
46291;BME280;32023;44.444;26.006;2023-01-28T02:09:22;100092.69;;;0.93;nan
46291;BME280;32023;44.444;26.006;2023-01-28T02:11:49;100089.38;;;0.98;nan
46291;BME280;32023;44.444;26.006;2023-01-28T02:14:18;100086.84;;;0.96;nan
46291;BME280;32023;44.444;26.006;2023-01-28T02:16:44;100088.91;;;0.94;nan
46291;BME280;32023;44.444;26.006;2023-01-28T02:19:12;100094.31;;;0.94;nan
46291;BME280;32023;44.444;26.006;2023-01-28T02:33:51;100101.91;;;1.06;nan
46291;BME280;32023;44.444;26.006;2023-01-28T02:39:13;100103.59;;;1.13;nan
46291;BME280;32023;44.444;26.006;2023-01-28T02:41:49;100108.16;;;1.13;nan
46291;BME280;32023;44.444;26.006;2023-01-28T02:44:18;100109.00;;;1.13;nan
46291;BME280;32023;44.444;26.006;2023-01-28T02:46:44;100112.31;;;1.09;nan
46291;BME280;32023;44.444;26.006;2023-01-28T02:49:40;100111.50;;;1.08;nan
46291;BME280;32023;44.444;26.006;2023-01-28T02:58:08;100115.47;;;1.25;nan
46291;BME280;32023;44.444;26.006;2023-01-28T03:06:06;100118.66;;;1.42;nan
46291;BME280;32023;44.444;26.006;2023-01-28T03:08:48;100115.31;;;1.47;nan
46291;BME280;32023;44.444;26.006;2023-01-28T03:11:41;100112.59;;;1.53;nan
46291;BME280;32023;44.444;26.006;2023-01-28T03:14:28;100111.16;;;1.57;nan
46291;BME280;32023;44.444;26.006;2023-01-28T03:17:31;100118.66;;;1.62;nan
46291;BME280;32023;44.444;26.006;2023-01-28T03:20:17;100116.16;;;1.67;nan
46291;BME280;32023;44.444;26.006;2023-01-28T03:23:08;100121.78;;;1.72;nan
46291;BME280;32023;44.444;26.006;2023-01-28T03:25:58;100124.94;;;1.75;nan
46291;BME280;32023;44.444;26.006;2023-01-28T03:28:46;100125.34;;;1.79;nan
46291;BME280;32023;44.444;26.006;2023-01-28T03:31:32;100121.38;;;1.81;nan
46291;BME280;32023;44.444;26.006;2023-01-28T03:34:20;100129.13;;;1.84;nan
46291;BME280;32023;44.444;26.006;2023-01-28T03:37:07;100125.34;;;1.85;nan
46291;BME280;32023;44.444;26.006;2023-01-28T03:39:34;100119.72;;;1.87;nan
46291;BME280;32023;44.444;26.006;2023-01-28T03:42:04;100127.66;;;1.88;nan
46291;BME280;32023;44.444;26.006;2023-01-28T03:44:31;100126.59;;;1.89;nan
46291;BME280;32023;44.444;26.006;2023-01-28T03:47:17;100125.75;;;1.89;nan
46291;BME280;32023;44.444;26.006;2023-01-28T03:49:46;100126.59;;;1.89;nan
46291;BME280;32023;44.444;26.006;2023-01-28T03:52:20;100127.66;;;1.88;nan
46291;BME280;32023;44.444;26.006;2023-01-28T03:54:48;100130.56;;;1.87;nan
46291;BME280;32023;44.444;26.006;2023-01-28T03:57:22;100136.59;;;1.89;nan
46291;BME280;32023;44.444;26.006;2023-01-28T03:59:49;100137.44;;;1.89;nan
46291;BME280;32023;44.444;26.006;2023-01-28T04:02:16;100138.09;;;1.91;nan
46291;BME280;32023;44.444;26.006;2023-01-28T04:04:43;100142.25;;;1.87;nan
46291;BME280;32023;44.444;26.006;2023-01-28T04:07:12;100146.88;;;1.80;nan
46291;BME280;32023;44.444;26.006;2023-01-28T04:09:42;100146.22;;;1.78;nan
46291;BME280;32023;44.444;26.006;2023-01-28T04:12:09;100151.22;;;1.81;nan
46291;BME280;32023;44.444;26.006;2023-01-28T04:14:39;100154.16;;;1.80;nan
46291;BME280;32023;44.444;26.006;2023-01-28T04:17:06;100156.47;;;1.83;nan
46291;BME280;32023;44.444;26.006;2023-01-28T04:19:33;100159.16;;;1.83;nan
46291;BME280;32023;44.444;26.006;2023-01-28T04:22:07;100162.09;;;1.81;nan
46291;BME280;32023;44.444;26.006;2023-01-28T04:24:35;100168.34;;;1.75;nan
46291;BME280;32023;44.444;26.006;2023-01-28T04:27:05;100161.25;;;1.61;nan
46291;BME280;32023;44.444;26.006;2023-01-28T04:29:31;100167.47;;;1.55;nan
46291;BME280;32023;44.444;26.006;2023-01-28T04:31:58;100173.34;;;1.59;nan
46291;BME280;32023;44.444;26.006;2023-01-28T04:34:24;100168.75;;;1.59;nan
46291;BME280;32023;44.444;26.006;2023-01-28T04:36:50;100172.91;;;1.49;nan
46291;BME280;32023;44.444;26.006;2023-01-28T04:39:17;100167.25;;;1.37;nan
46291;BME280;32023;44.444;26.006;2023-01-28T04:41:43;100172.22;;;1.27;nan
46291;BME280;32023;44.444;26.006;2023-01-28T04:44:10;100186.38;;;1.16;nan
46291;BME280;32023;44.444;26.006;2023-01-28T04:46:36;100191.56;;;1.11;nan
46291;BME280;32023;44.444;26.006;2023-01-28T04:49:02;100192.22;;;1.13;nan
46291;BME280;32023;44.444;26.006;2023-01-28T04:51:29;100186.22;;;1.24;nan
46291;BME280;32023;44.444;26.006;2023-01-28T04:53:55;100194.94;;;1.19;nan
46291;BME280;32023;44.444;26.006;2023-01-28T04:56:21;100203.28;;;1.18;nan
46291;BME280;32023;44.444;26.006;2023-01-28T04:58:48;100206.00;;;1.18;nan
46291;BME280;32023;44.444;26.006;2023-01-28T05:01:14;100203.28;;;1.18;nan
46291;BME280;32023;44.444;26.006;2023-01-28T05:03:40;100214.78;;;1.20;nan
46291;BME280;32023;44.444;26.006;2023-01-28T05:06:06;100213.94;;;1.26;nan
46291;BME280;32023;44.444;26.006;2023-01-28T05:08:33;100221.69;;;1.29;nan
46291;BME280;32023;44.444;26.006;2023-01-28T05:11:00;100221.28;;;1.32;nan
46291;BME280;32023;44.444;26.006;2023-01-28T05:13:26;100221.91;;;1.34;nan
46291;BME280;32023;44.444;26.006;2023-01-28T05:15:53;100225.63;;;1.26;nan
46291;BME280;32023;44.444;26.006;2023-01-28T05:18:19;100223.94;;;1.19;nan
46291;BME280;32023;44.444;26.006;2023-01-28T05:20:46;100230.19;;;1.13;nan
46291;BME280;32023;44.444;26.006;2023-01-28T05:23:13;100231.66;;;1.15;nan
46291;BME280;32023;44.444;26.006;2023-01-28T05:25:40;100231.63;;;1.09;nan
46291;BME280;32023;44.444;26.006;2023-01-28T05:28:10;100229.28;;;0.99;nan
46291;BME280;32023;44.444;26.006;2023-01-28T05:30:37;100235.53;;;1.00;nan
46291;BME280;32023;44.444;26.006;2023-01-28T05:33:04;100240.28;;;0.91;nan
46291;BME280;32023;44.444;26.006;2023-01-28T05:35:30;100246.53;;;0.91;nan
46291;BME280;32023;44.444;26.006;2023-01-28T05:37:56;100236.91;;;0.82;nan
46291;BME280;32023;44.444;26.006;2023-01-28T05:40:25;100248.13;;;0.79;nan
46291;BME280;32023;44.444;26.006;2023-01-28T05:42:51;100244.38;;;0.80;nan
46291;BME280;32023;44.444;26.006;2023-01-28T05:45:18;100247.31;;;0.79;nan
46291;BME280;32023;44.444;26.006;2023-01-28T05:47:44;100258.16;;;0.79;nan
46291;BME280;32023;44.444;26.006;2023-01-28T05:50:13;100253.91;;;0.70;nan
46291;BME280;32023;44.444;26.006;2023-01-28T05:52:39;100259.50;;;0.62;nan
46291;BME280;32023;44.444;26.006;2023-01-28T05:55:06;100259.59;;;0.47;nan
46291;BME280;32023;44.444;26.006;2023-01-28T05:57:32;100264.16;;;0.46;nan
46291;BME280;32023;44.444;26.006;2023-01-28T05:59:59;100266.28;;;0.51;nan
46291;BME280;32023;44.444;26.006;2023-01-28T06:02:25;100272.13;;;0.48;nan
46291;BME280;32023;44.444;26.006;2023-01-28T06:04:51;100273.41;;;0.52;nan
46291;BME280;32023;44.444;26.006;2023-01-28T06:07:18;100278.69;;;0.39;nan
46291;BME280;32023;44.444;26.006;2023-01-28T06:09:45;100281.25;;;0.47;nan
46291;BME280;32023;44.444;26.006;2023-01-28T06:12:13;100287.13;;;0.51;nan
46291;BME280;32023;44.444;26.006;2023-01-28T06:14:39;100294.63;;;0.48;nan
46291;BME280;32023;44.444;26.006;2023-01-28T06:17:05;100301.69;;;0.49;nan
46291;BME280;32023;44.444;26.006;2023-01-28T06:19:32;100299.06;;;0.56;nan
46291;BME280;32023;44.444;26.006;2023-01-28T06:21:58;100299.06;;;0.56;nan
46291;BME280;32023;44.444;26.006;2023-01-28T06:24:24;100299.50;;;0.60;nan
46291;BME280;32023;44.444;26.006;2023-01-28T06:26:51;100303.28;;;0.65;nan
46291;BME280;32023;44.444;26.006;2023-01-28T06:29:17;100301.84;;;0.69;nan
46291;BME280;32023;44.444;26.006;2023-01-28T06:31:43;100303.28;;;0.65;nan
46291;BME280;32023;44.444;26.006;2023-01-28T06:34:10;100307.41;;;0.61;nan
46291;BME280;32023;44.444;26.006;2023-01-28T06:36:36;100301.56;;;0.58;nan
46291;BME280;32023;44.444;26.006;2023-01-28T06:39:04;100312.38;;;0.58;nan
46291;BME280;32023;44.444;26.006;2023-01-28T06:41:31;100316.19;;;0.63;nan
46291;BME280;32023;44.444;26.006;2023-01-28T06:43:57;100316.81;;;0.65;nan
46291;BME280;32023;44.444;26.006;2023-01-28T06:46:23;100316.44;;;0.68;nan
46291;BME280;32023;44.444;26.006;2023-01-28T06:48:52;100321.06;;;0.74;nan
46291;BME280;32023;44.444;26.006;2023-01-28T06:51:18;100334.63;;;0.74;nan
46291;BME280;32023;44.444;26.006;2023-01-28T06:53:44;100327.47;;;0.67;nan
46291;BME280;32023;44.444;26.006;2023-01-28T06:56:13;100330.97;;;0.61;nan
46291;BME280;32023;44.444;26.006;2023-01-28T06:58:42;100332.69;;;0.68;nan
46291;BME280;32023;44.444;26.006;2023-01-28T07:01:09;100336.06;;;0.70;nan
46291;BME280;32023;44.444;26.006;2023-01-28T07:03:36;100332.91;;;0.67;nan
46291;BME280;32023;44.444;26.006;2023-01-28T07:06:05;100342.72;;;0.68;nan
46291;BME280;32023;44.444;26.006;2023-01-28T07:08:31;100343.91;;;0.65;nan
46291;BME280;32023;44.444;26.006;2023-01-28T07:11:00;100348.13;;;0.68;nan
46291;BME280;32023;44.444;26.006;2023-01-28T07:13:44;100344.19;;;0.70;nan
46291;BME280;32023;44.444;26.006;2023-01-28T07:16:13;100346.16;;;0.83;nan
46291;BME280;32023;44.444;26.006;2023-01-28T07:18:48;100353.34;;;0.97;nan
46291;BME280;32023;44.444;26.006;2023-01-28T07:21:15;100353.84;;;1.14;nan
46291;BME280;32023;44.444;26.006;2023-01-28T07:30:56;100369.06;;;1.42;nan
46291;BME280;32023;44.444;26.006;2023-01-28T07:41:39;100383.03;;;1.87;nan
46291;BME280;32023;44.444;26.006;2023-01-28T07:51:01;100380.94;;;1.82;nan
46291;BME280;32023;44.444;26.006;2023-01-28T07:54:09;100384.47;;;1.76;nan
46291;BME280;32023;44.444;26.006;2023-01-28T08:00:26;100369.78;;;1.64;nan
46291;BME280;32023;44.444;26.006;2023-01-28T08:03:01;100379.81;;;1.64;nan
46291;BME280;32023;44.444;26.006;2023-01-28T08:05:54;100387.06;;;1.50;nan
46291;BME280;32023;44.444;26.006;2023-01-28T08:08:22;100387.84;;;1.44;nan
46291;BME280;32023;44.444;26.006;2023-01-28T08:10:49;100396.22;;;1.49;nan
46291;BME280;32023;44.444;26.006;2023-01-28T08:13:17;100388.34;;;1.54;nan
46291;BME280;32023;44.444;26.006;2023-01-28T08:15:44;100404.03;;;1.65;nan
46291;BME280;32023;44.444;26.006;2023-01-28T08:18:12;100382.09;;;1.60;nan
46291;BME280;32023;44.444;26.006;2023-01-28T08:21:08;100402.81;;;1.74;nan
46291;BME280;32023;44.444;26.006;2023-01-28T08:24:06;100404.19;;;1.51;nan
46291;BME280;32023;44.444;26.006;2023-01-28T08:54:20;100423.69;;;2.15;nan
46291;BME280;32023;44.444;26.006;2023-01-28T08:57:06;100431.63;;;2.23;nan
46291;BME280;32023;44.444;26.006;2023-01-28T09:03:52;100421.97;;;2.07;nan
46291;BME280;32023;44.444;26.006;2023-01-28T09:10:15;100423.63;;;2.02;nan
46291;BME280;32023;44.444;26.006;2023-01-28T09:13:12;100417.53;;;1.93;nan
46291;BME280;32023;44.444;26.006;2023-01-28T09:33:14;100417.53;;;1.93;nan
46291;BME280;32023;44.444;26.006;2023-01-28T09:39:19;100418.59;;;1.99;nan
46291;BME280;32023;44.444;26.006;2023-01-28T09:42:03;100415.91;;;2.12;nan
46291;BME280;32023;44.444;26.006;2023-01-28T10:34:57;100410.38;;;2.39;nan
46291;BME280;32023;44.444;26.006;2023-01-28T10:37:35;100408.69;;;2.38;nan
46291;BME280;32023;44.444;26.006;2023-01-28T10:40:04;100408.72;;;2.45;nan
46291;BME280;32023;44.444;26.006;2023-01-28T10:42:44;100412.47;;;2.37;nan
46291;BME280;32023;44.444;26.006;2023-01-28T10:45:31;100409.50;;;2.32;nan
46291;BME280;32023;44.444;26.006;2023-01-28T10:51:41;100413.25;;;2.25;nan
46291;BME280;32023;44.444;26.006;2023-01-28T10:54:27;100409.03;;;2.16;nan
46291;BME280;32023;44.444;26.006;2023-01-28T10:57:08;100414.09;;;2.19;nan
46291;BME280;32023;44.444;26.006;2023-01-28T10:59:46;100412.00;;;2.21;nan
46291;BME280;32023;44.444;26.006;2023-01-28T11:12:29;100410.28;;;2.13;nan
46291;BME280;32023;44.444;26.006;2023-01-28T11:18:40;100408.84;;;2.11;nan
46291;BME280;32023;44.444;26.006;2023-01-28T11:21:31;100409.00;;;2.03;nan
46291;BME280;32023;44.444;26.006;2023-01-28T11:24:13;100412.53;;;1.97;nan
46291;BME280;32023;44.444;26.006;2023-01-28T11:26:44;100407.72;;;1.92;nan
46291;BME280;32023;44.444;26.006;2023-01-28T11:29:26;100413.91;;;1.79;nan
46291;BME280;32023;44.444;26.006;2023-01-28T11:31:55;100399.50;;;1.79;nan
46291;BME280;32023;44.444;26.006;2023-01-28T11:34:29;100408.91;;;1.76;nan
46291;BME280;32023;44.444;26.006;2023-01-28T11:37:15;100406.34;;;1.68;nan
46291;BME280;32023;44.444;26.006;2023-01-28T11:39:43;100397.53;;;1.60;nan
46291;BME280;32023;44.444;26.006;2023-01-28T11:42:20;100404.22;;;1.57;nan
46291;BME280;32023;44.444;26.006;2023-01-28T11:44:49;100394.78;;;1.53;nan
46291;BME280;32023;44.444;26.006;2023-01-28T11:53:07;100401.25;;;1.52;nan
46291;BME280;32023;44.444;26.006;2023-01-28T11:55:50;100394.13;;;1.51;nan
46291;BME280;32023;44.444;26.006;2023-01-28T11:58:20;100402.09;;;1.53;nan
46291;BME280;32023;44.444;26.006;2023-01-28T12:46:49;100402.84;;;1.40;nan
46291;BME280;32023;44.444;26.006;2023-01-28T12:57:23;100418.97;;;1.48;nan
46291;BME280;32023;44.444;26.006;2023-01-28T13:03:17;100418.34;;;1.46;nan
46291;BME280;32023;44.444;26.006;2023-01-28T13:05:58;100407.47;;;1.46;nan
46291;BME280;32023;44.444;26.006;2023-01-28T13:08:29;100417.94;;;1.49;nan
46291;BME280;32023;44.444;26.006;2023-01-28T13:10:57;100414.81;;;1.52;nan
46291;BME280;32023;44.444;26.006;2023-01-28T13:13:41;100419.63;;;1.50;nan
46291;BME280;32023;44.444;26.006;2023-01-28T13:16:13;100426.69;;;1.51;nan
46291;BME280;32023;44.444;26.006;2023-01-28T13:24:51;100427.03;;;1.35;nan
46291;BME280;32023;44.444;26.006;2023-01-28T13:37:43;100431.47;;;1.15;nan
46291;BME280;32023;44.444;26.006;2023-01-28T13:40:28;100430.19;;;1.11;nan
46291;BME280;32023;44.444;26.006;2023-01-28T13:46:13;100438.47;;;1.03;nan
46291;BME280;32023;44.444;26.006;2023-01-28T13:48:55;100444.72;;;1.03;nan
46291;BME280;32023;44.444;26.006;2023-01-28T13:51:30;100438.47;;;1.03;nan
46291;BME280;32023;44.444;26.006;2023-01-28T13:56:27;100441.97;;;0.96;nan
46291;BME280;32023;44.444;26.006;2023-01-28T14:11:13;100442.59;;;0.98;nan
46291;BME280;32023;44.444;26.006;2023-01-28T14:23:24;100437.88;;;1.07;nan
46291;BME280;32023;44.444;26.006;2023-01-28T14:32:24;100451.03;;;1.10;nan
46291;BME280;32023;44.444;26.006;2023-01-28T14:34:56;100439.69;;;1.00;nan
46291;BME280;32023;44.444;26.006;2023-01-28T14:37:51;100441.56;;;1.00;nan
46291;BME280;32023;44.444;26.006;2023-01-28T14:40:20;100445.97;;;1.01;nan
46291;BME280;32023;44.444;26.006;2023-01-28T14:42:52;100438.59;;;0.94;nan
46291;BME280;32023;44.444;26.006;2023-01-28T14:48:40;100447.53;;;0.88;nan
46291;BME280;32023;44.444;26.006;2023-01-28T15:04:41;100453.72;;;0.82;nan
46291;BME280;32023;44.444;26.006;2023-01-28T15:07:29;100460.81;;;0.83;nan
46291;BME280;32023;44.444;26.006;2023-01-28T15:21:32;100471.66;;;0.83;nan
46291;BME280;32023;44.444;26.006;2023-01-28T15:24:03;100474.00;;;0.86;nan
46291;BME280;32023;44.444;26.006;2023-01-28T15:26:38;100482.13;;;0.86;nan
46291;BME280;32023;44.444;26.006;2023-01-28T15:33:21;100479.78;;;0.62;nan
46291;BME280;32023;44.444;26.006;2023-01-28T15:35:55;100482.13;;;0.86;nan
46291;BME280;32023;44.444;26.006;2023-01-28T15:38:27;100482.94;;;0.87;nan
46291;BME280;32023;44.444;26.006;2023-01-28T15:45:15;100491.84;;;0.81;nan
46291;BME280;32023;44.444;26.006;2023-01-28T15:48:12;100500.16;;;0.79;nan
46291;BME280;32023;44.444;26.006;2023-01-28T15:51:33;100498.13;;;0.81;nan
46291;BME280;32023;44.444;26.006;2023-01-28T15:57:54;100507.72;;;0.84;nan
46291;BME280;32023;44.444;26.006;2023-01-28T16:04:24;100505.03;;;0.84;nan
46291;BME280;32023;44.444;26.006;2023-01-28T16:06:52;100508.84;;;0.89;nan
46291;BME280;32023;44.444;26.006;2023-01-28T16:09:36;100511.72;;;0.88;nan
46291;BME280;32023;44.444;26.006;2023-01-28T16:15:30;100509.88;;;0.88;nan
46291;BME280;32023;44.444;26.006;2023-01-28T16:18:03;100507.53;;;0.85;nan
46291;BME280;32023;44.444;26.006;2023-01-28T16:20:32;100507.50;;;0.79;nan
46291;BME280;32023;44.444;26.006;2023-01-28T16:23:03;100511.72;;;0.88;nan
46291;BME280;32023;44.444;26.006;2023-01-28T16:29:59;100526.78;;;0.90;nan
46291;BME280;32023;44.444;26.006;2023-01-28T16:32:57;100525.34;;;0.94;nan
46291;BME280;32023;44.444;26.006;2023-01-28T16:35:28;100532.72;;;1.01;nan
46291;BME280;32023;44.444;26.006;2023-01-28T16:37:57;100537.56;;;1.05;nan
46291;BME280;32023;44.444;26.006;2023-01-28T16:40:26;100537.88;;;1.17;nan
46291;BME280;32023;44.444;26.006;2023-01-28T16:42:53;100539.53;;;1.18;nan
46291;BME280;32023;44.444;26.006;2023-01-28T16:45:24;100538.78;;;1.24;nan
46291;BME280;32023;44.444;26.006;2023-01-28T16:47:59;100539.19;;;1.21;nan
46291;BME280;32023;44.444;26.006;2023-01-28T16:50:28;100546.66;;;1.19;nan
46291;BME280;32023;44.444;26.006;2023-01-28T16:52:58;100552.03;;;1.12;nan
46291;BME280;32023;44.444;26.006;2023-01-28T16:55:25;100545.56;;;1.13;nan
46291;BME280;32023;44.444;26.006;2023-01-28T16:58:02;100538.00;;;1.09;nan
46291;BME280;32023;44.444;26.006;2023-01-28T17:00:34;100547.34;;;1.06;nan
46291;BME280;32023;44.444;26.006;2023-01-28T17:03:01;100544.47;;;1.08;nan
46291;BME280;32023;44.444;26.006;2023-01-28T17:05:28;100544.91;;;1.11;nan
46291;BME280;32023;44.444;26.006;2023-01-28T17:07:54;100545.31;;;1.08;nan
46291;BME280;32023;44.444;26.006;2023-01-28T17:10:24;100549.03;;;1.07;nan
46291;BME280;32023;44.444;26.006;2023-01-28T17:12:53;100552.19;;;1.11;nan
46291;BME280;32023;44.444;26.006;2023-01-28T17:15:19;100551.19;;;1.12;nan
46291;BME280;32023;44.444;26.006;2023-01-28T17:17:51;100553.31;;;1.16;nan
46291;BME280;32023;44.444;26.006;2023-01-28T17:20:24;100559.38;;;1.18;nan
46291;BME280;32023;44.444;26.006;2023-01-28T17:23:02;100561.69;;;1.21;nan
46291;BME280;32023;44.444;26.006;2023-01-28T17:25:41;100565.91;;;1.24;nan
46291;BME280;32023;44.444;26.006;2023-01-28T17:28:10;100563.59;;;1.21;nan
46291;BME280;32023;44.444;26.006;2023-01-28T17:30:40;100567.19;;;1.28;nan
46291;BME280;32023;44.444;26.006;2023-01-28T17:33:07;100568.84;;;1.29;nan
46291;BME280;32023;44.444;26.006;2023-01-28T17:35:38;100570.34;;;1.31;nan
46291;BME280;32023;44.444;26.006;2023-01-28T17:38:13;100567.06;;;1.36;nan
46291;BME280;32023;44.444;26.006;2023-01-28T17:40:39;100574.41;;;1.42;nan
46291;BME280;32023;44.444;26.006;2023-01-28T17:43:08;100571.03;;;1.40;nan
46291;BME280;32023;44.444;26.006;2023-01-28T17:45:34;100571.50;;;1.43;nan
46291;BME280;32023;44.444;26.006;2023-01-28T17:48:07;100571.50;;;1.43;nan
46291;BME280;32023;44.444;26.006;2023-01-28T17:50:38;100578.03;;;1.49;nan
46291;BME280;32023;44.444;26.006;2023-01-28T17:53:22;100567.97;;;1.43;nan
46291;BME280;32023;44.444;26.006;2023-01-28T17:55:49;100579.44;;;1.45;nan
46291;BME280;32023;44.444;26.006;2023-01-28T17:58:15;100576.69;;;1.38;nan
46291;BME280;32023;44.444;26.006;2023-01-28T18:00:42;100582.28;;;1.37;nan
46291;BME280;32023;44.444;26.006;2023-01-28T18:03:20;100582.41;;;1.29;nan
46291;BME280;32023;44.444;26.006;2023-01-28T18:06:02;100592.56;;;1.20;nan
46291;BME280;32023;44.444;26.006;2023-01-28T18:08:38;100579.66;;;1.22;nan
46291;BME280;32023;44.444;26.006;2023-01-28T18:11:30;100590.50;;;1.22;nan
46291;BME280;32023;44.444;26.006;2023-01-28T18:13:57;100590.09;;;1.25;nan
46291;BME280;32023;44.444;26.006;2023-01-28T18:16:24;100590.94;;;1.26;nan
46291;BME280;32023;44.444;26.006;2023-01-28T18:22:39;100595.75;;;1.24;nan
46291;BME280;32023;44.444;26.006;2023-01-28T18:28:58;100599.22;;;1.18;nan
46291;BME280;32023;44.444;26.006;2023-01-28T18:35:00;100607.34;;;1.18;nan
46291;BME280;32023;44.444;26.006;2023-01-28T18:38:16;100607.16;;;1.19;nan
46291;BME280;32023;44.444;26.006;2023-01-28T18:41:24;100606.38;;;1.25;nan
46291;BME280;32023;44.444;26.006;2023-01-28T18:44:24;100611.56;;;1.20;nan
46291;BME280;32023;44.444;26.006;2023-01-28T18:47:01;100608.63;;;1.22;nan
46291;BME280;32023;44.444;26.006;2023-01-28T18:50:00;100610.72;;;1.20;nan
46291;BME280;32023;44.444;26.006;2023-01-28T18:56:18;100614.72;;;1.24;nan
46291;BME280;32023;44.444;26.006;2023-01-28T19:11:10;100613.88;;;1.66;nan
46291;BME280;32023;44.444;26.006;2023-01-28T19:20:41;100612.97;;;1.86;nan
46291;BME280;32023;44.444;26.006;2023-01-28T19:29:45;100623.72;;;2.01;nan
46291;BME280;32023;44.444;26.006;2023-01-28T19:39:57;100627.16;;;2.10;nan
46291;BME280;32023;44.444;26.006;2023-01-28T19:46:06;100632.31;;;2.05;nan
46291;BME280;32023;44.444;26.006;2023-01-28T19:59:28;100629.59;;;2.05;nan
46291;BME280;32023;44.444;26.006;2023-01-28T20:02:34;100634.84;;;2.06;nan
46291;BME280;32023;44.444;26.006;2023-01-28T20:08:34;100642.00;;;2.14;nan
46291;BME280;32023;44.444;26.006;2023-01-28T20:11:18;100643.47;;;2.16;nan
46291;BME280;32023;44.444;26.006;2023-01-28T20:13:53;100651.44;;;2.18;nan
46291;BME280;32023;44.444;26.006;2023-01-28T20:16:32;100643.91;;;2.20;nan
46291;BME280;32023;44.444;26.006;2023-01-28T20:19:30;100648.50;;;2.19;nan
46291;BME280;32023;44.444;26.006;2023-01-28T20:39:56;100659.63;;;1.97;nan
46291;BME280;32023;44.444;26.006;2023-01-28T21:08:29;100672.75;;;1.93;nan
46291;BME280;32023;44.444;26.006;2023-01-28T21:22:39;100687.19;;;1.93;nan
46291;BME280;32023;44.444;26.006;2023-01-28T21:25:23;100696.63;;;1.98;nan
46291;BME280;32023;44.444;26.006;2023-01-28T21:27:57;100687.25;;;2.00;nan